CAMANCHE RESERVOIR (CMN)

Elevation: 236' · MOKELUMNE R basin · Operator: East Bay Municipal Utility District

Provisional data, subject to change.
Query executed Tuesday at 12:39:09   clock

Select a sensor type for a plot of data.
Note: Reservoir Flows are daily averages.

Earlier

Date RES ELE    STORAGE    RES CHG    TOC STO    ABV TOC    OUTFLOW    INFLOW   
 FEET   AF   AF   AF   AF   CFS   CFS  
12/28/2014 187.14 134800 -399 287940 -153140 227 11
12/29/2014 187.28 135370 556 288600 -153230 226 543
12/30/2014 187.42 135940 624 289190 -153250 226 545
12/31/2014 187.65 136897 957 -- -- 226 562
01/01/2015 187.64 136840 -35 289330 -152490 226 11
01/02/2015 187.85 137700 835 289770 -- 226 639
01/03/2015 188.01 138360 694 290250 -- 226 540
01/04/2015 187.93 138030 -340 289610 -151580 226 11
01/05/2015 188.08 138640 634 290030 -151390 226 541
01/06/2015 188.23 139260 617 290570 -151310 226 539
01/07/2015 188.39 139930 591 291160 -- 226 538
01/08/2015 188.52 140470 597 291760 -- 226 550
01/09/2015 188.67 141090 605 292310 -- 227 554
01/10/2015 188.57 140680 -376 292000 -- 227 11
01/11/2015 188.47 140260 -441 291980 -151720 227 11
01/12/2015 188.37 139840 -378 -- -- 226 75
01/13/2015 188.27 139430 -390 -- -- 225 52
01/14/2015 188.17 139020 -462 -- -- 225 11
01/15/2015 188.04 138480 -524 -- -- 225 11
01/16/2015 187.96 138150 -326 292290 -- 225 11
01/17/2015 187.85 137700 -449 292350 -- 225 11
01/18/2015 187.75 137290 -409 292310 -- 225 11
01/19/2015 187.66 136920 -379 292350 -- 225 11
01/20/2015 187.55 136470 -447 292370 -155900 225 11
01/21/2015 187.45 136060 -396 292290 -156230 225 11
01/22/2015 187.34 135610 -425 292150 -156540 225 11
01/23/2015 187.23 135160 -389 292000 -- 225 11
01/24/2015 187.14 134800 -424 292000 -- 225 11
01/25/2015 187.04 134390 -429 292040 -157650 225 11
01/26/2015 186.92 133910 -450 292020 -158110 228 11
01/27/2015 -- -- -- -- -- -- --

Later | Latest

Warning! This data is preliminary and subject to revision.

Show CMN Map | Plot CMN Data | 1 Month CMN Data | Real-Time CMN Data | CMN Info